Time;durP1;ratioP1;P1;durP2;ratioP2;P2;SDS_P1;SDS_P2;PMS_P1;PMS_P2;Temp;Humidity;BMP_temperature;BMP_pressure;BME280_temperature;BME280_humidity;BME280_pressure;Samples;Min_cycle;Max_cycle;Signal;HPM_P1;HPM_P2
2023/02/18 00:00:46;;;;;;;4.85;4.03;;;;;;;;;;4990539;28;21654;-88
2023/02/18 00:03:14;;;;;;;4.13;3.15;;;;;;;;;;4988219;28;20046;-88
2023/02/18 00:05:42;;;;;;;4.95;4.03;;;;;;;;;;4980954;28;20485;-88
2023/02/18 00:08:09;;;;;;;4.18;3.13;;;;;;;;;;4975733;28;20051;-88
2023/02/18 00:10:36;;;;;;;4.65;3.40;;;;;;;;;;4972334;28;20050;-87
2023/02/18 00:13:04;;;;;;;5.60;4.20;;;;;;;;;;4957197;28;20490;-88
2023/02/18 00:15:31;;;;;;;4.88;3.50;;;;;;;;;;4966882;28;20050;-88
2023/02/18 00:17:58;;;;;;;3.70;3.25;;;;;;;;;;4976139;28;20046;-88
2023/02/18 00:20:28;;;;;;;3.42;3.10;;;;;;;;;;4983314;28;20057;-88
2023/02/18 00:22:57;;;;;;;4.50;3.63;;;;;;;;;;4987644;28;20050;-88
2023/02/18 00:25:24;;;;;;;5.20;4.15;;;;;;;;;;4985640;28;20410;-88
2023/02/18 00:27:54;;;;;;;5.85;4.13;;;;;;;;;;5010397;23;20065;-89
2023/02/18 00:30:21;;;;;;;5.30;3.58;;;;;;;;;;4989357;28;20046;-88
2023/02/18 00:32:48;;;;;;;6.15;4.18;;;;;;;;;;4967184;28;20050;-88
2023/02/18 00:35:16;;;;;;;4.70;3.92;;;;;;;;;;4955768;28;20061;-89
2023/02/18 00:37:44;;;;;;;4.55;3.80;;;;;;;;;;4960984;28;20050;-89
2023/02/18 00:40:13;;;;;;;3.60;3.20;;;;;;;;;;4981452;28;20042;-88
2023/02/18 00:42:41;;;;;;;5.25;2.95;;;;;;;;;;4992078;28;20413;-88
2023/02/18 00:45:09;;;;;;;5.13;3.72;;;;;;;;;;4999251;28;20058;-88
2023/02/18 00:47:36;;;;;;;5.10;3.55;;;;;;;;;;4978569;28;20052;-86
2023/02/18 00:50:04;;;;;;;5.57;4.57;;;;;;;;;;4993270;28;20057;-87
2023/02/18 00:52:31;;;;;;;5.90;3.58;;;;;;;;;;4976862;28;20046;-88
2023/02/18 00:55:01;;;;;;;5.68;3.78;;;;;;;;;;4989726;28;20054;-88
2023/02/18 00:57:29;;;;;;;4.82;3.45;;;;;;;;;;4975642;28;20054;-88
2023/02/18 00:59:57;;;;;;;3.88;3.45;;;;;;;;;;4993524;28;20042;-88
2023/02/18 01:02:24;;;;;;;5.40;3.17;;;;;;;;;;4963121;28;20061;-88
2023/02/18 01:04:51;;;;;;;5.82;3.25;;;;;;;;;;4981193;28;20517;-88
2023/02/18 01:07:19;;;;;;;4.95;3.67;;;;;;;;;;4968337;28;20050;-89
2023/02/18 01:09:46;;;;;;;5.38;3.97;;;;;;;;;;4976609;28;20054;-88
2023/02/18 01:12:14;;;;;;;5.32;3.58;;;;;;;;;;4955530;28;20058;-89
2023/02/18 01:14:42;;;;;;;5.47;3.75;;;;;;;;;;4970983;28;20075;-88
2023/02/18 01:17:10;;;;;;;4.95;3.42;;;;;;;;;;4984631;28;20058;-88
2023/02/18 01:19:42;;;;;;;4.35;3.35;;;;;;;;;;4972193;28;20054;-88
2023/02/18 01:22:09;;;;;;;5.15;4.00;;;;;;;;;;4988818;28;20050;-88
2023/02/18 01:24:37;;;;;;;3.45;2.67;;;;;;;;;;4974897;28;20540;-88
2023/02/18 01:27:04;;;;;;;4.25;3.60;;;;;;;;;;4953140;28;20050;-88
2023/02/18 01:29:34;;;;;;;4.30;2.90;;;;;;;;;;4972871;28;20053;-88
2023/02/18 01:32:03;;;;;;;3.88;3.15;;;;;;;;;;4970614;28;20039;-87
2023/02/18 01:34:30;;;;;;;4.80;3.90;;;;;;;;;;4971783;28;20067;-88
2023/02/18 01:37:02;;;;;;;3.70;3.30;;;;;;;;;;4950772;28;20050;-88
2023/02/18 01:39:29;;;;;;;4.30;3.03;;;;;;;;;;4972249;28;20065;-88
2023/02/18 01:41:59;;;;;;;4.30;3.78;;;;;;;;;;4971178;28;20050;-88
2023/02/18 01:44:29;;;;;;;4.75;3.90;;;;;;;;;;4975610;28;20054;-89
2023/02/18 01:46:56;;;;;;;6.00;4.38;;;;;;;;;;4972868;28;20049;-88
2023/02/18 01:49:28;;;;;;;4.70;3.25;;;;;;;;;;4969310;28;20065;-88
2023/02/18 01:52:00;;;;;;;4.97;3.50;;;;;;;;;;4971871;28;20533;-88
2023/02/18 01:54:33;;;;;;;5.07;3.55;;;;;;;;;;4972344;28;20049;-88
2023/02/18 01:57:03;;;;;;;4.38;3.42;;;;;;;;;;4971675;28;20042;-88
2023/02/18 01:59:36;;;;;;;7.70;3.90;;;;;;;;;;4972261;28;20053;-88
2023/02/18 02:02:04;;;;;;;4.35;3.75;;;;;;;;;;4992759;28;20046;-88
2023/02/18 02:04:35;;;;;;;4.85;4.22;;;;;;;;;;4991897;28;20050;-89
2023/02/18 02:07:03;;;;;;;4.25;3.58;;;;;;;;;;4967163;28;20053;-89
2023/02/18 02:09:31;;;;;;;5.15;4.13;;;;;;;;;;4960510;28;20054;-89
2023/02/18 02:12:21;;;;;;;5.55;3.88;;;;;;;;;;4977958;28;20057;-88
2023/02/18 02:15:04;;;;;;;5.10;3.92;;;;;;;;;;4989123;28;20050;-89
2023/02/18 02:17:37;;;;;;;5.22;4.70;;;;;;;;;;4995008;28;20058;-89
2023/02/18 02:20:31;;;;;;;5.35;3.88;;;;;;;;;;4990432;28;20054;-89
2023/02/18 02:23:32;;;;;;;6.10;4.07;;;;;;;;;;4974792;28;20042;-89
2023/02/18 02:26:36;;;;;;;3.63;3.13;;;;;;;;;;4973306;28;20046;-89
2023/02/18 02:29:39;;;;;;;4.45;4.03;;;;;;;;;;4972159;28;20069;-89
2023/02/18 02:32:39;;;;;;;4.97;2.83;;;;;;;;;;4953159;28;20054;-89
2023/02/18 02:35:09;;;;;;;8.50;3.90;;;;;;;;;;4925201;28;20054;-89
2023/02/18 02:37:41;;;;;;;5.70;3.65;;;;;;;;;;4984729;28;20395;-88
2023/02/18 02:40:18;;;;;;;3.80;3.22;;;;;;;;;;4974324;28;20050;-89
2023/02/18 02:42:54;;;;;;;4.50;3.50;;;;;;;;;;4972142;28;20047;-89
2023/02/18 02:45:29;;;;;;;4.13;3.20;;;;;;;;;;4990183;28;20039;-89
2023/02/18 02:48:05;;;;;;;3.40;3.10;;;;;;;;;;4992032;28;20061;-89
2023/02/18 02:50:38;;;;;;;3.95;3.03;;;;;;;;;;4954973;28;20061;-89
2023/02/18 02:53:11;;;;;;;4.23;3.73;;;;;;;;;;4971801;28;20433;-88
2023/02/18 02:55:40;;;;;;;4.75;3.08;;;;;;;;;;4973222;28;20494;-89
2023/02/18 02:58:15;;;;;;;4.55;3.75;;;;;;;;;;4978126;28;20046;-89
2023/02/18 03:01:05;;;;;;;5.53;3.53;;;;;;;;;;4974220;28;20050;-89
2023/02/18 03:03:54;;;;;;;4.07;3.63;;;;;;;;;;4974782;28;20058;-89
2023/02/18 03:07:02;;;;;;;4.05;3.65;;;;;;;;;;4991217;28;20058;-89
2023/02/18 03:09:39;;;;;;;3.70;3.10;;;;;;;;;;4966880;28;20054;-89
2023/02/18 03:12:10;;;;;;;5.43;3.67;;;;;;;;;;4971056;28;20053;-89
2023/02/18 03:14:44;;;;;;;4.97;4.10;;;;;;;;;;4971386;28;20066;-89
2023/02/18 03:17:15;;;;;;;5.72;4.50;;;;;;;;;;4982892;28;20069;-89
2023/02/18 03:19:47;;;;;;;5.07;4.28;;;;;;;;;;4978033;28;20453;-89
2023/02/18 03:22:21;;;;;;;6.55;3.58;;;;;;;;;;4955542;28;20051;-90
2023/02/18 03:24:51;;;;;;;4.80;3.88;;;;;;;;;;4973771;28;20046;-89
2023/02/18 03:27:23;;;;;;;4.43;4.00;;;;;;;;;;4990221;28;20057;-89
2023/02/18 03:29:53;;;;;;;6.18;4.63;;;;;;;;;;4972510;28;20038;-89
2023/02/18 03:32:22;;;;;;;8.13;4.78;;;;;;;;;;4973737;28;20057;-89
2023/02/18 03:34:55;;;;;;;4.55;3.42;;;;;;;;;;4976161;28;20050;-89
2023/02/18 03:37:26;;;;;;;4.88;3.40;;;;;;;;;;4957783;28;20054;-89
2023/02/18 03:39:56;;;;;;;5.85;4.88;;;;;;;;;;4977951;28;20046;-89
2023/02/18 03:42:27;;;;;;;5.28;4.40;;;;;;;;;;4974572;28;20058;-89
2023/02/18 03:44:58;;;;;;;4.95;4.45;;;;;;;;;;4955761;28;20327;-89
2023/02/18 03:47:25;;;;;;;4.85;4.32;;;;;;;;;;4952529;28;20126;-89
2023/02/18 03:49:52;;;;;;;5.03;4.53;;;;;;;;;;4990741;28;20050;-89
2023/02/18 03:52:19;;;;;;;5.93;4.97;;;;;;;;;;5007030;28;20026;-87
2023/02/18 03:54:48;;;;;;;7.32;4.38;;;;;;;;;;4992600;28;20051;-87
2023/02/18 03:57:15;;;;;;;4.63;3.88;;;;;;;;;;4977745;28;20064;-87
2023/02/18 03:59:43;;;;;;;4.68;4.18;;;;;;;;;;4976366;28;20058;-89
2023/02/18 04:02:12;;;;;;;5.22;4.03;;;;;;;;;;4990330;28;20050;-89
2023/02/18 04:04:41;;;;;;;4.85;4.35;;;;;;;;;;4973567;28;20049;-88
2023/02/18 04:07:11;;;;;;;5.63;4.00;;;;;;;;;;4981811;28;20065;-89
2023/02/18 04:09:40;;;;;;;6.72;4.80;;;;;;;;;;4995531;28;20061;-88
2023/02/18 04:12:11;;;;;;;6.32;4.20;;;;;;;;;;4987096;28;20410;-88
2023/02/18 04:14:41;;;;;;;4.75;4.10;;;;;;;;;;4972584;28;20414;-89
2023/02/18 04:17:08;;;;;;;5.25;4.65;;;;;;;;;;4973305;28;20057;-89
2023/02/18 04:19:36;;;;;;;8.90;5.32;;;;;;;;;;4974298;28;20057;-89
2023/02/18 04:22:03;;;;;;;7.15;5.85;;;;;;;;;;4968262;28;20053;-89
2023/02/18 04:24:30;;;;;;;8.07;4.40;;;;;;;;;;4992474;28;20050;-89
2023/02/18 04:26:57;;;;;;;5.95;5.00;;;;;;;;;;4987032;28;20050;-89
2023/02/18 04:29:26;;;;;;;6.05;5.43;;;;;;;;;;4992520;28;20058;-89
2023/02/18 04:31:53;;;;;;;5.63;4.75;;;;;;;;;;4990153;28;20053;-89
2023/02/18 04:34:23;;;;;;;4.43;3.90;;;;;;;;;;4971235;28;20046;-89
2023/02/18 04:36:52;;;;;;;4.65;4.07;;;;;;;;;;4989739;28;20046;-89
2023/02/18 04:39:19;;;;;;;7.47;4.32;;;;;;;;;;4974208;28;20058;-89
2023/02/18 04:41:47;;;;;;;7.43;4.43;;;;;;;;;;4972151;28;20073;-89
2023/02/18 04:44:14;;;;;;;7.07;5.00;;;;;;;;;;4986603;28;20054;-89
2023/02/18 04:46:42;;;;;;;6.05;5.28;;;;;;;;;;4968514;28;20061;-89
2023/02/18 04:49:10;;;;;;;8.95;4.95;;;;;;;;;;4987342;28;20054;-89
2023/02/18 04:51:37;;;;;;;6.57;5.15;;;;;;;;;;4971293;28;20050;-89
2023/02/18 04:54:07;;;;;;;5.72;4.78;;;;;;;;;;4990944;28;20544;-89
2023/02/18 04:56:34;;;;;;;7.45;6.07;;;;;;;;;;4985628;28;20414;-89
2023/02/18 04:59:01;;;;;;;6.22;4.93;;;;;;;;;;4973627;28;20058;-88
2023/02/18 05:01:31;;;;;;;6.47;5.00;;;;;;;;;;4969394;28;20053;-89
2023/02/18 05:03:59;;;;;;;6.97;5.38;;;;;;;;;;4972008;28;20073;-89
2023/02/18 05:06:29;;;;;;;5.63;4.20;;;;;;;;;;4986330;28;20065;-89
2023/02/18 05:08:58;;;;;;;5.50;4.90;;;;;;;;;;4988153;28;20418;-88
2023/02/18 05:11:26;;;;;;;8.00;4.68;;;;;;;;;;4983094;28;20054;-88
2023/02/18 05:13:56;;;;;;;5.97;4.50;;;;;;;;;;4991425;28;20395;-89
2023/02/18 05:16:26;;;;;;;8.85;4.28;;;;;;;;;;4987631;28;20066;-88
2023/02/18 05:18:53;;;;;;;7.63;4.60;;;;;;;;;;4957361;28;20069;-89
2023/02/18 05:21:22;;;;;;;5.25;4.30;;;;;;;;;;4961337;28;20055;-88
2023/02/18 05:23:49;;;;;;;5.75;4.65;;;;;;;;;;4995072;28;20050;-88
2023/02/18 05:26:16;;;;;;;4.75;4.28;;;;;;;;;;4969517;28;20410;-88
2023/02/18 05:28:44;;;;;;;5.45;4.40;;;;;;;;;;4973638;28;20050;-88
2023/02/18 05:31:11;;;;;;;7.28;5.55;;;;;;;;;;4967010;28;20061;-89
2023/02/18 05:33:38;;;;;;;6.70;5.55;;;;;;;;;;4983459;28;20054;-88
2023/02/18 05:36:08;;;;;;;6.68;5.63;;;;;;;;;;4993338;28;20057;-89
2023/02/18 05:38:36;;;;;;;6.78;5.40;;;;;;;;;;4984681;28;20057;-88
2023/02/18 05:41:04;;;;;;;6.53;5.55;;;;;;;;;;4968364;28;20053;-88
2023/02/18 05:44:28;;;;;;;6.13;4.93;;;;;;;;;;4990393;28;20050;-88
2023/02/18 05:46:19;;;;;;;7.85;4.90;;;;;;;;;;4971546;28;20502;-88
2023/02/18 05:48:46;;;;;;;6.90;5.80;;;;;;;;;;4990674;28;20414;-89
2023/02/18 05:51:16;;;;;;;7.35;5.20;;;;;;;;;;4987616;28;20490;-88
2023/02/18 05:53:47;;;;;;;5.90;4.72;;;;;;;;;;4988828;28;20038;-88
2023/02/18 05:56:14;;;;;;;6.22;5.32;;;;;;;;;;4983934;28;20057;-88
2023/02/18 05:58:41;;;;;;;5.70;4.65;;;;;;;;;;4990431;28;20386;-88
2023/02/18 06:01:11;;;;;;;5.43;4.63;;;;;;;;;;4987743;28;20425;-88
2023/02/18 06:03:38;;;;;;;7.60;5.00;;;;;;;;;;4990539;28;20053;-88
2023/02/18 06:06:06;;;;;;;5.57;4.97;;;;;;;;;;4971094;28;20047;-87
2023/02/18 06:08:34;;;;;;;10.57;5.22;;;;;;;;;;4986960;28;20054;-88
2023/02/18 06:11:03;;;;;;;6.35;5.50;;;;;;;;;;4988145;28;20059;-88
2023/02/18 06:13:32;;;;;;;6.85;4.65;;;;;;;;;;4968160;28;20061;-89
2023/02/18 06:15:59;;;;;;;5.93;4.57;;;;;;;;;;4984256;28;20043;-89
2023/02/18 06:18:27;;;;;;;5.20;4.47;;;;;;;;;;4972676;28;20046;-89
2023/02/18 06:20:54;;;;;;;5.63;4.68;;;;;;;;;;4973112;28;20039;-89
2023/02/18 06:23:24;;;;;;;6.65;4.80;;;;;;;;;;4980962;28;20058;-89
2023/02/18 06:25:51;;;;;;;6.38;4.65;;;;;;;;;;4986576;28;20387;-89
2023/02/18 06:28:22;;;;;;;4.53;4.13;;;;;;;;;;5014337;23;20050;-88
2023/02/18 06:30:50;;;;;;;5.28;4.57;;;;;;;;;;4967698;28;20050;-88
2023/02/18 06:33:17;;;;;;;5.47;3.85;;;;;;;;;;4983529;28;20042;-88
2023/02/18 06:35:53;;;;;;;5.25;4.45;;;;;;;;;;4966133;28;20061;-88
2023/02/18 06:38:20;;;;;;;5.55;4.53;;;;;;;;;;5004208;28;20073;-88
2023/02/18 06:40:48;;;;;;;7.38;5.65;;;;;;;;;;4999335;28;20116;-88
2023/02/18 06:43:15;;;;;;;5.38;4.70;;;;;;;;;;5000631;28;20046;-88
2023/02/18 06:49:32;;;;;;;5.70;4.78;;;;;;;;;;5018161;23;20050;-91
2023/02/18 06:52:00;;;;;;;6.30;5.57;;;;;;;;;;4982027;28;20055;-89
2023/02/18 06:54:30;;;;;;;5.78;5.03;;;;;;;;;;4967174;28;20043;-90
2023/02/18 06:57:02;;;;;;;4.87;3.93;;;;;;;;;;4953729;28;20053;-89
2023/02/18 06:59:30;;;;;;;6.32;5.65;;;;;;;;;;4960179;28;20433;-90
2023/02/18 07:01:58;;;;;;;5.30;4.60;;;;;;;;;;4957860;28;20069;-90
2023/02/18 07:04:26;;;;;;;5.57;4.53;;;;;;;;;;4955603;28;20050;-91
2023/02/18 07:07:02;;;;;;;4.90;4.50;;;;;;;;;;4971581;28;20433;-90
2023/02/18 07:09:30;;;;;;;5.25;4.40;;;;;;;;;;4974522;28;20522;-92
2023/02/18 07:11:58;;;;;;;5.93;4.45;;;;;;;;;;4959503;28;20045;-90
2023/02/18 07:14:33;;;;;;;5.20;4.53;;;;;;;;;;4971655;28;20054;-93
2023/02/18 07:17:03;;;;;;;6.60;4.75;;;;;;;;;;4962954;28;20043;-93
2023/02/18 07:19:32;;;;;;;5.10;3.88;;;;;;;;;;4963226;28;20425;-93
2023/02/18 07:22:06;;;;;;;4.82;3.78;;;;;;;;;;4947544;28;20537;-90
2023/02/18 07:24:36;;;;;;;5.15;4.60;;;;;;;;;;4965297;28;20046;-93
2023/02/18 07:27:04;;;;;;;5.22;4.15;;;;;;;;;;4969674;28;20042;-91
2023/02/18 07:29:31;;;;;;;4.07;3.67;;;;;;;;;;4985648;28;20065;-90
2023/02/18 07:31:59;;;;;;;5.10;4.20;;;;;;;;;;4962912;28;20050;-91
2023/02/18 07:34:27;;;;;;;5.18;4.32;;;;;;;;;;4955603;28;20163;-90
2023/02/18 07:36:55;;;;;;;6.07;4.22;;;;;;;;;;4961789;28;20139;-91
2023/02/18 07:39:26;;;;;;;4.15;3.72;;;;;;;;;;4961357;28;20070;-91
2023/02/18 07:41:57;;;;;;;4.10;3.67;;;;;;;;;;4981078;28;20058;-90
2023/02/18 07:44:26;;;;;;;6.18;4.47;;;;;;;;;;4959078;28;20054;-91
2023/02/18 07:46:54;;;;;;;5.45;4.10;;;;;;;;;;4979322;28;20057;-91
2023/02/18 07:49:24;;;;;;;5.95;4.35;;;;;;;;;;4974478;28;20058;-90
2023/02/18 07:51:54;;;;;;;6.22;4.18;;;;;;;;;;4992179;28;20049;-90
2023/02/18 07:54:26;;;;;;;6.20;4.13;;;;;;;;;;4950862;28;20059;-91
2023/02/18 07:56:54;;;;;;;4.97;4.47;;;;;;;;;;4979408;28;20061;-92
2023/02/18 07:59:22;;;;;;;3.80;3.42;;;;;;;;;;4967624;28;20512;-90
2023/02/18 08:01:52;;;;;;;4.40;3.42;;;;;;;;;;4967569;28;20058;-91
2023/02/18 08:04:22;;;;;;;4.70;3.42;;;;;;;;;;4973312;28;20051;-92
2023/02/18 08:06:49;;;;;;;4.53;3.40;;;;;;;;;;4965201;28;20054;-93
2023/02/18 08:09:21;;;;;;;3.78;2.80;;;;;;;;;;4965492;28;20053;-91
2023/02/18 08:11:52;;;;;;;4.80;3.55;;;;;;;;;;4962928;28;20059;-91
2023/02/18 08:14:20;;;;;;;4.47;3.47;;;;;;;;;;4962179;28;20054;-91
2023/02/18 08:16:50;;;;;;;5.88;4.20;;;;;;;;;;4974842;28;20138;-93
2023/02/18 08:19:22;;;;;;;5.95;3.50;;;;;;;;;;4964369;28;20058;-91
2023/02/18 08:21:49;;;;;;;7.22;3.13;;;;;;;;;;4976678;28;20046;-90
2023/02/18 08:24:20;;;;;;;3.10;2.80;;;;;;;;;;4981652;28;20054;-92
2023/02/18 08:27:00;;;;;;;4.45;3.22;;;;;;;;;;4953653;28;20065;-91
2023/02/18 08:29:29;;;;;;;4.72;3.55;;;;;;;;;;4985722;28;20049;-90
2023/02/18 08:31:58;;;;;;;4.20;3.38;;;;;;;;;;4958463;28;20050;-91
2023/02/18 08:34:26;;;;;;;4.45;3.35;;;;;;;;;;4975941;28;20058;-91
2023/02/18 08:36:54;;;;;;;3.97;3.35;;;;;;;;;;4961503;28;20501;-91
2023/02/18 08:39:21;;;;;;;4.40;3.08;;;;;;;;;;4939443;28;20046;-91
2023/02/18 08:41:49;;;;;;;3.50;3.20;;;;;;;;;;4964293;28;20047;-91
2023/02/18 08:44:17;;;;;;;3.88;3.40;;;;;;;;;;4968522;28;20509;-92
2023/02/18 08:46:47;;;;;;;3.72;3.10;;;;;;;;;;4977831;28;20065;-89
2023/02/18 08:49:23;;;;;;;3.72;2.80;;;;;;;;;;4965312;28;20054;-90
2023/02/18 08:51:50;;;;;;;4.13;3.58;;;;;;;;;;4962567;28;20417;-92
2023/02/18 08:54:19;;;;;;;5.03;3.58;;;;;;;;;;4960771;28;20050;-90
2023/02/18 08:56:54;;;;;;;3.85;3.17;;;;;;;;;;4991829;28;20517;-91
2023/02/18 08:59:23;;;;;;;4.40;3.78;;;;;;;;;;4950606;28;20057;-92
2023/02/18 09:01:53;;;;;;;4.30;3.83;;;;;;;;;;4978037;28;20050;-91
2023/02/18 09:04:22;;;;;;;5.80;3.72;;;;;;;;;;4955911;28;20047;-93
2023/02/18 09:06:53;;;;;;;4.25;3.35;;;;;;;;;;4984624;28;20046;-92
2023/02/18 09:09:21;;;;;;;4.80;3.97;;;;;;;;;;4963824;28;20414;-91
2023/02/18 09:11:51;;;;;;;4.70;3.67;;;;;;;;;;4961731;28;20054;-92
2023/02/18 09:14:24;;;;;;;5.32;3.65;;;;;;;;;;4978631;28;20047;-93
2023/02/18 09:16:57;;;;;;;4.32;3.65;;;;;;;;;;4968285;28;20054;-91
2023/02/18 09:19:27;;;;;;;5.10;3.20;;;;;;;;;;4957145;28;20054;-91
2023/02/18 09:21:58;;;;;;;5.07;3.78;;;;;;;;;;4940107;28;20089;-91
2023/02/18 09:24:28;;;;;;;4.18;3.53;;;;;;;;;;4955452;28;20058;-91
2023/02/18 09:26:59;;;;;;;4.25;3.60;;;;;;;;;;4978355;28;20528;-91
2023/02/18 09:29:26;;;;;;;5.20;3.45;;;;;;;;;;4957751;28;20089;-91
2023/02/18 09:32:00;;;;;;;4.18;3.58;;;;;;;;;;4958626;28;20054;-90
2023/02/18 09:34:30;;;;;;;4.47;3.50;;;;;;;;;;4956359;28;20421;-91
2023/02/18 09:37:01;;;;;;;4.28;3.50;;;;;;;;;;4944366;28;20043;-91
2023/02/18 09:39:29;;;;;;;4.60;3.17;;;;;;;;;;4974364;28;20137;-90
2023/02/18 09:42:01;;;;;;;4.50;3.67;;;;;;;;;;4942451;28;20061;-90
2023/02/18 09:44:35;;;;;;;7.32;3.88;;;;;;;;;;4948167;28;20521;-89
2023/02/18 09:47:09;;;;;;;4.85;3.53;;;;;;;;;;4951786;28;20034;-90
2023/02/18 09:49:41;;;;;;;5.10;3.55;;;;;;;;;;4957464;28;20057;-91
2023/02/18 09:52:13;;;;;;;4.30;3.70;;;;;;;;;;4952299;28;20065;-90
2023/02/18 09:54:40;;;;;;;4.20;3.20;;;;;;;;;;4957132;28;20054;-90
2023/02/18 09:57:18;;;;;;;5.03;3.80;;;;;;;;;;4950285;28;20050;-90
2023/02/18 09:59:49;;;;;;;5.03;3.95;;;;;;;;;;4959116;28;20453;-91
2023/02/18 10:02:19;;;;;;;4.93;4.05;;;;;;;;;;4942484;28;20058;-91
2023/02/18 10:04:51;;;;;;;3.88;3.10;;;;;;;;;;4944301;28;20413;-90
2023/02/18 10:07:25;;;;;;;4.88;3.30;;;;;;;;;;4944362;28;20425;-91
2023/02/18 10:09:55;;;;;;;12.27;3.58;;;;;;;;;;4984539;28;20054;-92
2023/02/18 10:12:26;;;;;;;4.10;3.70;;;;;;;;;;4977845;28;20059;-90
2023/02/18 10:14:56;;;;;;;4.88;3.53;;;;;;;;;;4974515;28;20050;-91
2023/02/18 10:17:29;;;;;;;4.75;3.47;;;;;;;;;;4991693;28;20050;-91
2023/02/18 10:19:57;;;;;;;3.85;3.17;;;;;;;;;;4967483;28;20061;-91
2023/02/18 10:22:26;;;;;;;5.60;3.78;;;;;;;;;;4988663;28;20507;-92
2023/02/18 10:24:57;;;;;;;3.67;2.70;;;;;;;;;;4956824;28;20050;-90
2023/02/18 10:27:26;;;;;;;5.05;3.30;;;;;;;;;;4953282;28;20050;-91
2023/02/18 10:29:56;;;;;;;3.90;3.47;;;;;;;;;;4972095;28;20529;-91
2023/02/18 10:32:32;;;;;;;5.50;3.00;;;;;;;;;;4965191;28;20422;-89
2023/02/18 10:35:04;;;;;;;4.22;3.55;;;;;;;;;;4959673;28;20411;-91
2023/02/18 10:37:51;;;;;;;8.55;4.25;;;;;;;;;;4974982;28;20047;-90
2023/02/18 10:40:25;;;;;;;4.72;4.18;;;;;;;;;;4967475;28;20509;-91
2023/02/18 10:43:01;;;;;;;4.28;3.63;;;;;;;;;;4958001;28;20042;-90
2023/02/18 10:45:37;;;;;;;4.88;3.58;;;;;;;;;;4943106;28;20054;-90
2023/02/18 10:48:21;;;;;;;5.47;3.40;;;;;;;;;;4949664;28;20054;-90
2023/02/18 10:50:48;;;;;;;4.60;3.28;;;;;;;;;;4961366;28;20046;-90
2023/02/18 10:53:19;;;;;;;3.28;2.58;;;;;;;;;;4978863;28;20058;-91
2023/02/18 10:55:49;;;;;;;4.55;3.50;;;;;;;;;;4957562;28;20049;-91
2023/02/18 10:58:32;;;;;;;2.75;2.08;;;;;;;;;;4970251;28;20061;-91
2023/02/18 11:01:03;;;;;;;3.28;2.50;;;;;;;;;;4973506;28;20429;-91
2023/02/18 11:03:44;;;;;;;4.03;2.88;;;;;;;;;;4971767;28;20054;-90
2023/02/18 11:06:22;;;;;;;3.95;2.72;;;;;;;;;;4968108;28;20039;-92
2023/02/18 11:08:49;;;;;;;3.88;2.60;;;;;;;;;;4975864;28;20143;-93
2023/02/18 11:11:21;;;;;;;2.88;2.58;;;;;;;;;;4954954;28;20424;-93
2023/02/18 11:13:53;;;;;;;3.53;2.80;;;;;;;;;;4959717;28;20053;-93
2023/02/18 11:16:22;;;;;;;4.68;2.63;;;;;;;;;;4954253;28;20050;-91
2023/02/18 11:18:53;;;;;;;3.00;2.67;;;;;;;;;;4958966;28;20042;-92
2023/02/18 11:21:29;;;;;;;2.80;2.42;;;;;;;;;;4961960;28;20057;-91
2023/02/18 11:23:58;;;;;;;3.92;2.30;;;;;;;;;;4969176;28;20054;-92
2023/02/18 11:26:29;;;;;;;2.75;2.20;;;;;;;;;;4983820;28;20045;-93
2023/02/18 11:29:02;;;;;;;4.43;3.05;;;;;;;;;;4985058;28;20069;-92
2023/02/18 11:31:42;;;;;;;3.58;2.92;;;;;;;;;;4966513;28;20061;-92
2023/02/18 11:34:20;;;;;;;2.20;1.83;;;;;;;;;;4967816;28;20056;-92
2023/02/18 11:36:48;;;;;;;5.53;2.97;;;;;;;;;;4963784;28;20058;-92
2023/02/18 11:39:23;;;;;;;2.88;2.60;;;;;;;;;;4967256;28;20062;-92
2023/02/18 11:41:58;;;;;;;3.35;2.58;;;;;;;;;;4960292;28;20053;-91
2023/02/18 11:44:30;;;;;;;3.50;2.55;;;;;;;;;;4956030;28;20051;-92
2023/02/18 11:47:00;;;;;;;4.88;3.03;;;;;;;;;;4953307;28;20054;-90
2023/02/18 11:49:33;;;;;;;6.25;3.50;;;;;;;;;;4957589;28;20449;-91
2023/02/18 11:52:16;;;;;;;7.72;4.80;;;;;;;;;;4965631;28;20061;-92
2023/02/18 11:55:00;;;;;;;6.78;4.60;;;;;;;;;;4974469;28;20050;-93
2023/02/18 11:57:34;;;;;;;7.55;6.80;;;;;;;;;;4972042;28;20560;-92
2023/02/18 12:00:03;;;;;;;7.68;5.85;;;;;;;;;;4985908;28;20057;-90
2023/02/18 12:02:40;;;;;;;6.60;5.93;;;;;;;;;;4967115;28;20046;-93
2023/02/18 12:05:16;;;;;;;7.95;5.80;;;;;;;;;;4959877;28;20062;-90
2023/02/18 12:07:58;;;;;;;7.28;5.63;;;;;;;;;;4969332;28;20051;-91
2023/02/18 12:10:28;;;;;;;9.23;5.78;;;;;;;;;;4951913;28;20054;-94
2023/02/18 12:13:02;;;;;;;8.40;6.50;;;;;;;;;;4952870;28;20424;-93
2023/02/18 12:15:34;;;;;;;;;;;;;;;;;;4958701;28;20050;-91
2023/02/18 12:18:28;;;;;;;6.93;5.97;;;;;;;;;;4959526;28;19922;-90
2023/02/18 12:21:17;;;;;;;7.53;5.47;;;;;;;;;;4952988;28;20061;-93
2023/02/18 12:23:56;;;;;;;7.50;5.90;;;;;;;;;;4972872;28;20046;-90
2023/02/18 12:26:28;;;;;;;11.07;5.70;;;;;;;;;;4968014;28;20050;-92
2023/02/18 13:13:11;;;;;;;5.68;4.20;;;;;;;;;;4972865;28;20050;-89
2023/02/18 13:15:41;;;;;;;4.63;4.15;;;;;;;;;;4970177;28;20047;-88
2023/02/18 13:18:12;;;;;;;6.72;4.90;;;;;;;;;;4942925;28;20051;-89
2023/02/18 13:20:41;;;;;;;4.72;4.10;;;;;;;;;;4937426;28;20047;-90
2023/02/18 13:23:16;;;;;;;4.80;4.07;;;;;;;;;;4952541;29;20050;-88
2023/02/18 13:25:43;;;;;;;4.32;3.45;;;;;;;;;;4948351;28;20051;-88
2023/02/18 13:28:18;;;;;;;6.03;3.40;;;;;;;;;;4948744;28;20055;-88
2023/02/18 13:30:48;;;;;;;3.92;3.50;;;;;;;;;;4952154;28;20058;-89
2023/02/18 13:34:10;;;;;;;;;;;;;;;;;;;;;
2023/02/18 13:45:51;;;;;;;;;;;;;;;;;;;;;
2023/02/18 16:57:22;;;;;;;5.68;4.07;;;;;;;;;;6246662;22;20063;-92
2023/02/18 17:00:25;;;;;;;8.02;5.80;;;;;;;;;;6247945;22;20015;-92
2023/02/18 17:03:00;;;;;;;6.15;5.07;;;;;;;;;;6233988;22;20026;-92
2023/02/18 17:05:38;;;;;;;8.00;5.43;;;;;;;;;;6243061;22;20126;-92
2023/02/18 17:08:23;;;;;;;6.82;5.47;;;;;;;;;;6272438;22;20027;-93
2023/02/18 17:13:46;;;;;;;7.10;5.15;;;;;;;;;;6216138;22;20023;-91
2023/02/18 17:16:15;;;;;;;5.40;4.90;;;;;;;;;;6222388;22;20019;-92
2023/02/18 17:19:08;;;;;;;6.80;5.65;;;;;;;;;;6221141;22;20012;-92
2023/02/18 17:32:35;;;;;;;7.35;5.88;;;;;;;;;;6219588;22;20022;-92
2023/02/18 17:41:29;;;;;;;8.63;5.30;;;;;;;;;;6271865;22;20031;-93
2023/02/18 17:55:23;;;;;;;9.40;6.68;;;;;;;;;;6218769;22;20015;-91
2023/02/18 18:00:36;;;;;;;7.40;6.03;;;;;;;;;;6222919;22;20024;-91
2023/02/18 18:03:08;;;;;;;8.02;5.05;;;;;;;;;;6246750;22;20529;-94
2023/02/18 18:05:37;;;;;;;8.02;5.63;;;;;;;;;;6094479;23;20029;-89
2023/02/18 18:08:06;;;;;;;7.60;5.53;;;;;;;;;;6118690;23;20018;-88
2023/02/18 18:10:35;;;;;;;6.85;5.20;;;;;;;;;;6145074;23;20018;-89
2023/02/18 18:13:05;;;;;;;7.03;5.53;;;;;;;;;;6093667;23;20021;-89
2023/02/18 18:28:58;;;;;;;8.15;6.03;;;;;;;;;;6269611;22;20011;-88
2023/02/18 18:31:25;;;;;;;7.57;5.47;;;;;;;;;;6224023;22;20458;-88
2023/02/18 18:33:57;;;;;;;6.47;5.00;;;;;;;;;;6255423;22;20023;-88
2023/02/18 18:36:24;;;;;;;7.18;5.93;;;;;;;;;;6222861;22;20015;-89
2023/02/18 18:38:54;;;;;;;5.85;5.18;;;;;;;;;;6248540;22;20015;-88
2023/02/18 18:41:23;;;;;;;6.80;5.57;;;;;;;;;;6221680;22;20023;-90
2023/02/18 18:43:53;;;;;;;7.05;5.60;;;;;;;;;;6244969;22;20019;-87
2023/02/18 18:46:22;;;;;;;6.80;5.00;;;;;;;;;;6220710;22;20030;-88
2023/02/18 18:48:50;;;;;;;7.07;6.05;;;;;;;;;;6216409;22;20023;-88
2023/02/18 18:51:28;;;;;;;6.28;5.68;;;;;;;;;;6242359;22;20039;-88
2023/02/18 18:53:56;;;;;;;8.57;5.85;;;;;;;;;;6242278;22;20019;-88
2023/02/18 18:56:23;;;;;;;7.15;5.72;;;;;;;;;;6244078;22;20019;-88
2023/02/18 18:58:51;;;;;;;9.98;5.65;;;;;;;;;;6217110;22;20028;-87
2023/02/18 19:01:25;;;;;;;5.80;4.95;;;;;;;;;;6218117;22;20024;-89
2023/02/18 19:03:56;;;;;;;6.93;6.00;;;;;;;;;;6241231;22;20016;-90
2023/02/18 19:06:26;;;;;;;6.63;5.25;;;;;;;;;;6217152;22;20479;-87
2023/02/18 19:08:53;;;;;;;7.22;5.47;;;;;;;;;;6215998;22;20016;-88
2023/02/18 19:11:21;;;;;;;6.47;5.75;;;;;;;;;;6217532;22;20027;-90
2023/02/18 19:13:51;;;;;;;8.80;5.20;;;;;;;;;;6217406;22;20027;-88
2023/02/18 19:19:23;;;;;;;6.88;5.63;;;;;;;;;;6243719;22;20434;-88
2023/02/18 19:21:53;;;;;;;6.78;5.65;;;;;;;;;;6216805;22;20079;-89
2023/02/18 19:24:21;;;;;;;7.25;5.82;;;;;;;;;;6242187;22;20546;-87
2023/02/18 19:26:50;;;;;;;6.13;4.93;;;;;;;;;;6216543;22;20019;-88
2023/02/18 19:29:22;;;;;;;8.10;5.95;;;;;;;;;;6240699;22;20024;-87
2023/02/18 19:31:52;;;;;;;6.80;5.60;;;;;;;;;;6241908;22;20016;-87
2023/02/18 19:34:20;;;;;;;15.07;5.90;;;;;;;;;;6241913;22;20038;-87
2023/02/18 19:36:48;;;;;;;5.85;5.25;;;;;;;;;;6219411;22;20020;-87
2023/02/18 19:39:20;;;;;;;7.47;5.95;;;;;;;;;;6220583;22;20605;-88
2023/02/18 19:41:50;;;;;;;8.40;6.13;;;;;;;;;;6220019;22;20522;-87
2023/02/18 19:44:18;;;;;;;10.05;7.00;;;;;;;;;;6218843;22;20016;-87
2023/02/18 19:46:46;;;;;;;6.80;5.47;;;;;;;;;;6242489;22;20017;-88
2023/02/18 19:49:16;;;;;;;5.78;4.82;;;;;;;;;;6220271;22;20501;-87
2023/02/18 19:51:43;;;;;;;6.70;5.55;;;;;;;;;;6244332;22;20019;-88
2023/02/18 19:54:11;;;;;;;7.95;5.68;;;;;;;;;;6219665;22;20019;-91
2023/02/18 19:56:40;;;;;;;6.13;5.50;;;;;;;;;;6245895;22;20012;-87
2023/02/18 19:59:07;;;;;;;6.97;5.60;;;;;;;;;;6218998;22;20031;-86
2023/02/18 20:01:35;;;;;;;7.38;6.35;;;;;;;;;;6218787;22;20016;-87
2023/02/18 20:04:04;;;;;;;7.70;6.07;;;;;;;;;;6244058;22;20031;-88
2023/02/18 20:06:33;;;;;;;8.32;6.45;;;;;;;;;;6244252;22;20509;-87